Time;durP1;ratioP1;P1;durP2;ratioP2;P2;SDS_P1;SDS_P2;PMS_P1;PMS_P2;Temp;Humidity;BMP_temperature;BMP_pressure;BME280_temperature;BME280_humidity;BME280_pressure;Samples;Min_cycle;Max_cycle;Signal;HPM_P1;HPM_P2
2021/07/14 00:01:05;;;;;;;27.02;11.55;;;;;;;15.22;85.45;101431.09;4993043;28;20184;-73
2021/07/14 00:03:31;;;;;;;22.40;11.10;;;;;;;15.25;85.85;101430.78;4997004;28;20033;-73
2021/07/14 00:05:56;;;;;;;22.23;10.90;;;;;;;15.26;85.64;101429.78;4997405;28;20406;-73
2021/07/14 00:08:21;;;;;;;17.70;10.15;;;;;;;15.27;85.60;101437.66;4996363;28;20033;-75
2021/07/14 00:10:47;;;;;;;25.10;11.18;;;;;;;15.27;85.66;101436.81;4996321;28;20527;-74
2021/07/14 00:23:50;;;;;;;25.67;12.20;;;;;;;15.25;85.63;101446.84;4997304;28;20513;-74
2021/07/14 00:26:16;;;;;;;34.53;13.63;;;;;;;15.23;85.92;101438.13;4996044;28;20090;-74
2021/07/14 00:28:47;;;;;;;29.23;13.05;;;;;;;15.20;86.18;101447.31;4997086;28;20115;-74
2021/07/14 00:31:14;;;;;;;;;;;;;;;15.19;86.44;101437.59;4997629;28;20560;-73
2021/07/14 00:33:41;;;;;;;28.42;13.77;;;;;;;15.19;86.42;101442.13;5012200;28;19973;-73
2021/07/14 00:36:06;;;;;;;33.15;14.05;;;;;;;15.19;86.63;101445.63;4997595;28;20040;-74
2021/07/14 00:38:32;;;;;;;26.73;13.40;;;;;;;15.18;86.57;101440.44;4997037;28;20030;-74
2021/07/14 00:40:57;;;;;;;40.08;14.13;;;;;;;15.19;86.27;101444.81;4997481;28;20521;-74
2021/07/14 00:43:23;;;;;;;31.25;14.10;;;;;;;15.20;86.38;101449.13;4997433;28;20113;-74
2021/07/14 00:45:48;;;;;;;34.60;14.73;;;;;;;15.20;86.66;101441.97;4993975;28;20374;-74
2021/07/14 00:48:15;;;;;;;30.45;13.88;;;;;;;15.22;86.59;101447.16;4995676;28;20038;-74
2021/07/14 00:50:40;;;;;;;37.20;14.20;;;;;;;15.22;86.68;101441.81;4996712;28;20117;-74
2021/07/14 00:53:06;;;;;;;44.80;15.68;;;;;;;15.22;86.98;101442.63;4996731;28;20068;-74
2021/07/14 00:55:32;;;;;;;34.25;15.30;;;;;;;15.22;86.73;101439.97;4997232;28;20070;-76
2021/07/14 00:57:57;;;;;;;38.30;15.85;;;;;;;15.24;86.71;101442.47;4995717;28;20040;-75
2021/07/14 01:00:23;;;;;;;35.35;14.43;;;;;;;15.26;86.71;101441.34;4996757;28;20034;-74
2021/07/14 01:02:48;;;;;;;40.42;15.85;;;;;;;15.27;86.96;101440.34;4996361;28;20045;-74
2021/07/14 01:05:24;;;;;;;35.33;15.55;;;;;;;15.27;87.08;101440.34;4997145;28;20446;-74
2021/07/14 01:08:08;;;;;;;35.15;16.00;;;;;;;15.27;87.10;101450.22;4996557;28;20109;-74
2021/07/14 01:10:55;;;;;;;38.60;14.13;;;;;;;15.29;86.94;101453.59;4996968;28;20030;-74
2021/07/14 01:13:35;;;;;;;35.25;14.88;;;;;;;15.28;87.12;101452.75;4995386;28;20030;-74
2021/07/14 01:16:07;;;;;;;32.15;15.40;;;;;;;15.30;87.16;101457.94;4996192;28;20082;-74
2021/07/14 01:18:58;;;;;;;34.65;15.40;;;;;;;15.30;86.88;101444.53;4996238;28;20038;-75
2021/07/14 01:21:41;;;;;;;45.97;15.02;;;;;;;15.31;87.07;101443.56;4996861;28;20110;-74
2021/07/14 01:24:17;;;;;;;34.17;14.25;;;;;;;15.30;86.91;101439.19;4996278;28;20256;-75
2021/07/14 01:27:01;;;;;;;34.60;15.07;;;;;;;15.30;87.32;101437.34;4995989;28;20054;-74
2021/07/14 01:29:28;;;;;;;31.90;14.45;;;;;;;15.32;87.21;101443.41;4996260;28;20116;-75
2021/07/14 01:31:55;;;;;;;38.35;15.85;;;;;;;15.32;87.25;101434.53;4994714;28;20471;-75
2021/07/14 01:34:22;;;;;;;39.95;14.45;;;;;;;15.32;87.01;101439.88;4996375;28;20034;-74
2021/07/14 01:36:50;;;;;;;30.65;15.10;;;;;;;15.33;86.95;101438.88;4995940;28;20036;-74
2021/07/14 01:39:18;;;;;;;30.60;14.50;;;;;;;15.34;86.98;101429.84;4996800;28;20054;-74
2021/07/14 01:41:46;;;;;;;32.17;15.43;;;;;;;15.37;86.84;101436.72;4998907;28;20444;-74
2021/07/14 01:44:12;;;;;;;24.48;15.20;;;;;;;15.36;86.98;101435.91;4997030;28;20033;-74
2021/07/14 01:46:40;;;;;;;29.92;15.77;;;;;;;15.38;86.88;101443.78;4996269;28;20037;-75
2021/07/14 01:49:12;;;;;;;32.90;14.13;;;;;;;15.38;86.85;101439.25;4996403;28;20069;-75
2021/07/14 01:51:43;;;;;;;33.38;14.80;;;;;;;15.38;86.71;101431.22;4995730;28;20031;-73
2021/07/14 01:54:12;;;;;;;29.13;15.90;;;;;;;15.39;86.47;101438.28;4995149;28;20034;-74
2021/07/14 01:56:39;;;;;;;32.88;16.08;;;;;;;15.39;86.49;101438.28;4994497;28;20100;-74
2021/07/14 01:59:05;;;;;;;31.10;15.77;;;;;;;15.40;86.55;101445.28;4995271;28;20432;-74
2021/07/14 02:01:32;;;;;;;35.78;15.88;;;;;;;15.41;86.37;101446.16;4995242;28;20479;-74
2021/07/14 02:06:48;;;;;;;32.08;15.82;;;;;;;15.44;85.95;101445.84;4994418;28;20085;-75
2021/07/14 02:09:15;;;;;;;34.63;14.68;;;;;;;15.43;85.94;101447.66;4996184;28;20037;-74
2021/07/14 02:11:43;;;;;;;29.15;14.27;;;;;;;15.46;85.64;101443.84;4995264;28;20113;-74
2021/07/14 02:14:08;;;;;;;32.90;14.02;;;;;;;15.47;85.68;101450.88;4995194;28;20057;-74
2021/07/14 02:16:34;;;;;;;33.85;15.00;;;;;;;15.47;85.36;101440.16;4995473;28;20424;-74
2021/07/14 02:19:03;;;;;;;27.80;14.18;;;;;;;15.47;85.24;101435.63;4995500;28;20033;-75
2021/07/14 02:21:28;;;;;;;27.30;14.65;;;;;;;15.45;85.24;101429.59;4995314;28;20085;-73
2021/07/14 02:23:54;;;;;;;36.63;14.93;;;;;;;15.45;85.34;101429.59;4994731;28;20438;-75
2021/07/14 02:26:19;;;;;;;31.25;15.65;;;;;;;15.44;85.56;101424.38;4993934;28;20136;-74
2021/07/14 02:28:45;;;;;;;29.48;15.05;;;;;;;15.41;85.70;101411.28;4995182;28;20513;-74
2021/07/14 02:31:11;;;;;;;30.13;14.32;;;;;;;15.40;85.18;101412.28;4994677;28;20463;-74
2021/07/14 02:33:36;;;;;;;29.63;14.35;;;;;;;15.42;85.24;101410.28;4993910;28;20045;-73
2021/07/14 02:36:04;;;;;;;26.25;14.13;;;;;;;15.40;85.31;101405.06;4994768;28;20478;-73
2021/07/14 02:38:36;;;;;;;30.95;15.85;;;;;;;15.38;85.43;101398.22;4994735;28;20034;-74
2021/07/14 02:41:07;;;;;;;34.72;15.77;;;;;;;15.39;85.06;101410.59;4995163;28;20034;-74
2021/07/14 02:43:37;;;;;;;37.63;15.82;;;;;;;15.39;85.67;101411.44;4994503;28;20531;-76
2021/07/14 02:46:08;;;;;;;40.47;17.02;;;;;;;15.37;85.72;101408.06;4994512;28;20029;-75
2021/07/14 02:48:34;;;;;;;45.00;17.33;;;;;;;15.36;86.01;101405.53;4994629;28;20065;-75
2021/07/14 02:51:01;;;;;;;32.17;15.65;;;;;;;15.34;86.11;101398.50;4994510;28;20054;-74
2021/07/14 02:53:35;;;;;;;43.17;18.42;;;;;;;15.31;86.14;101396.13;4993768;28;20038;-74
2021/07/14 02:56:05;;;;;;;42.97;18.98;;;;;;;15.26;86.96;101408.34;4995086;28;20042;-74
2021/07/14 02:58:33;;;;;;;48.90;19.67;;;;;;;15.25;86.88;101406.66;4994691;28;20029;-74
2021/07/14 03:01:01;;;;;;;41.65;18.13;;;;;;;15.24;87.06;101399.59;4994330;28;20031;-74
2021/07/14 03:03:27;;;;;;;36.20;17.77;;;;;;;15.25;86.69;101395.94;4994613;28;20459;-74
2021/07/14 03:05:59;;;;;;;36.17;16.85;;;;;;;15.25;86.47;101404.78;4994353;28;20049;-74
2021/07/14 03:08:29;;;;;;;38.60;16.23;;;;;;;15.25;86.47;101407.47;4994122;28;20022;-74
2021/07/14 03:10:56;;;;;;;27.67;14.00;;;;;;;15.27;86.27;101399.28;4994375;28;20037;-75
2021/07/14 03:13:30;;;;;;;22.85;14.20;;;;;;;15.28;86.04;101399.13;4993877;28;20491;-74
2021/07/14 03:15:56;;;;;;;25.27;13.75;;;;;;;15.29;86.38;101398.13;4994074;28;20031;-75
2021/07/14 03:18:24;;;;;;;24.27;14.48;;;;;;;15.33;86.24;101409.38;4994233;28;20089;-74
2021/07/14 03:20:53;;;;;;;32.45;15.80;;;;;;;15.33;86.19;101406.69;4993700;28;20045;-74
2021/07/14 03:23:19;;;;;;;32.30;16.63;;;;;;;15.31;86.35;101404.16;4994145;28;20023;-73
2021/07/14 03:25:45;;;;;;;30.40;14.98;;;;;;;15.31;86.54;101398.81;4992641;28;20394;-74
2021/07/14 03:28:11;;;;;;;35.63;16.83;;;;;;;15.30;86.73;101391.78;4994511;28;20050;-74
2021/07/14 03:30:37;;;;;;;29.60;17.08;;;;;;;15.29;86.26;101390.09;4994007;28;20038;-74
2021/07/14 03:33:03;;;;;;;30.60;16.40;;;;;;;15.30;86.80;101396.28;4994160;28;20115;-74
2021/07/14 03:35:29;;;;;;;34.50;17.15;;;;;;;15.27;86.71;101405.50;4994265;28;20118;-75
2021/07/14 03:37:56;;;;;;;33.45;16.38;;;;;;;15.27;86.75;101401.97;4993493;28;20041;-74
2021/07/14 03:40:22;;;;;;;34.20;17.20;;;;;;;15.26;86.85;101398.44;4994413;28;20344;-75
2021/07/14 03:42:50;;;;;;;36.28;17.58;;;;;;;15.25;86.97;101387.88;4994179;28;20041;-74
2021/07/14 03:45:16;;;;;;;33.30;17.80;;;;;;;15.24;86.86;101395.09;4993594;28;20022;-74
2021/07/14 03:47:42;;;;;;;41.22;19.08;;;;;;;15.23;86.97;101392.56;4993600;28;20031;-74
2021/07/14 03:50:09;;;;;;;36.05;17.10;;;;;;;15.23;86.94;101389.88;4993787;28;20092;-74
2021/07/14 03:52:36;;;;;;;38.28;19.65;;;;;;;15.22;87.37;101399.75;4994120;28;20034;-74
2021/07/14 03:55:04;;;;;;;33.85;18.50;;;;;;;15.22;86.90;101398.91;4993446;28;20084;-73
2021/07/14 03:57:30;;;;;;;33.00;18.05;;;;;;;15.21;87.27;101390.03;4992488;28;20426;-74
2021/07/14 03:59:56;;;;;;;30.13;16.73;;;;;;;15.23;86.73;101381.84;4993681;28;20081;-75
2021/07/14 04:02:22;;;;;;;33.70;17.40;;;;;;;15.21;86.92;101392.72;4993769;28;20368;-74
2021/07/14 04:04:49;;;;;;;31.23;18.08;;;;;;;15.23;86.83;101393.41;4993449;28;20035;-73
2021/07/14 04:07:26;;;;;;;30.48;16.33;;;;;;;15.24;86.57;101404.94;4992201;28;20038;-74
2021/07/14 04:09:52;;;;;;;27.40;15.00;;;;;;;15.23;86.50;101404.13;4993665;28;20039;-73
2021/07/14 04:12:17;;;;;;;30.17;15.65;;;;;;;15.25;86.55;101396.75;4993485;28;20060;-73
2021/07/14 04:14:44;;;;;;;25.05;14.07;;;;;;;15.25;86.52;101396.75;4993473;28;20066;-74
2021/07/14 04:17:09;;;;;;;24.52;14.55;;;;;;;15.25;86.42;101387.88;4992499;28;20038;-74
2021/07/14 04:19:36;;;;;;;25.05;12.82;;;;;;;15.26;86.11;101389.56;4993149;28;20038;-74
2021/07/14 04:22:06;;;;;;;26.73;13.75;;;;;;;15.26;85.88;101385.03;4993523;28;20463;-74
2021/07/14 04:24:31;;;;;;;29.20;14.50;;;;;;;15.28;85.81;101374.16;4993401;28;20038;-74
2021/07/14 04:26:58;;;;;;;32.45;15.27;;;;;;;15.30;85.67;101372.16;4993294;28;20054;-78
2021/07/14 04:29:23;;;;;;;23.50;14.00;;;;;;;15.30;85.71;101366.78;4994372;28;20129;-74
2021/07/14 04:31:49;;;;;;;25.30;13.85;;;;;;;15.32;85.29;101371.00;4993617;28;20426;-73
2021/07/14 04:34:14;;;;;;;25.95;14.30;;;;;;;15.34;85.52;101377.03;4993467;28;20058;-74
2021/07/14 04:36:41;;;;;;;26.15;15.13;;;;;;;15.36;85.06;101379.59;4993219;28;20046;-73
2021/07/14 04:39:08;;;;;;;31.73;14.98;;;;;;;15.37;85.20;101391.16;4993788;28;20042;-72
2021/07/14 04:41:34;;;;;;;39.80;18.20;;;;;;;15.32;85.33;101388.94;4993313;28;20038;-73
2021/07/14 04:44:02;;;;;;;40.95;18.00;;;;;;;15.28;85.93;101383.03;4993705;28;20442;-73
2021/07/14 04:46:28;;;;;;;36.35;17.48;;;;;;;15.28;85.75;101400.97;4993241;28;20093;-72
2021/07/14 04:48:54;;;;;;;38.15;16.63;;;;;;;15.29;85.73;101408.03;4993803;28;20458;-72
2021/07/14 04:51:20;;;;;;;36.72;16.83;;;;;;;15.28;85.56;101399.13;5011741;28;20092;-74
2021/07/14 04:53:45;;;;;;;30.08;14.90;;;;;;;15.29;85.29;101402.66;4996277;28;20026;-72
2021/07/14 04:56:12;;;;;;;28.95;15.63;;;;;;;15.27;85.41;101397.47;4996395;28;20042;-73
2021/07/14 04:58:38;;;;;;;36.40;15.90;;;;;;;15.28;85.47;101401.81;4996662;28;20034;-71
2021/07/14 05:01:03;;;;;;;40.88;14.75;;;;;;;15.29;85.61;101398.13;4996378;28;20041;-69
2021/07/14 05:03:29;;;;;;;29.73;15.02;;;;;;;15.32;85.41;101397.00;4996364;28;20132;-75
2021/07/14 05:05:54;;;;;;;27.23;13.77;;;;;;;15.34;85.40;101400.34;4996773;28;20033;-74
2021/07/14 05:08:20;;;;;;;26.13;14.10;;;;;;;15.37;85.08;101405.38;4996393;28;20066;-73
2021/07/14 05:10:48;;;;;;;32.20;15.07;;;;;;;15.36;85.18;101401.03;4996937;28;20117;-73
2021/07/14 05:13:15;;;;;;;26.20;14.95;;;;;;;15.40;84.80;101402.38;4996923;28;20046;-74
2021/07/14 05:15:43;;;;;;;28.70;14.63;;;;;;;15.38;84.59;101407.09;4996244;28;20116;-75
2021/07/14 05:18:10;;;;;;;27.58;14.10;;;;;;;15.38;85.05;101403.56;4996162;28;20038;-75
2021/07/14 05:20:35;;;;;;;30.60;14.43;;;;;;;15.39;85.05;101400.72;4996032;28;20038;-74
2021/07/14 05:23:01;;;;;;;31.65;14.82;;;;;;;15.44;84.92;101409.13;4996094;28;20036;-74
2021/07/14 05:25:26;;;;;;;24.00;13.38;;;;;;;15.43;84.21;101402.06;4996113;28;20462;-74
2021/07/14 05:27:52;;;;;;;26.30;14.00;;;;;;;15.43;84.60;101411.97;4994696;28;20065;-74
2021/07/14 05:30:17;;;;;;;29.92;14.05;;;;;;;15.41;84.54;101411.28;4995794;28;20030;-73
2021/07/14 05:32:43;;;;;;;28.13;14.30;;;;;;;15.43;84.66;101410.13;4996232;28;20038;-74
2021/07/14 05:35:09;;;;;;;26.83;13.73;;;;;;;15.45;84.60;101416.19;4995261;28;20419;-74
2021/07/14 05:37:34;;;;;;;23.80;12.48;;;;;;;15.44;84.32;101408.28;4995752;28;20030;-73
2021/07/14 05:39:59;;;;;;;34.00;13.35;;;;;;;15.45;84.46;101412.63;4995713;28;20121;-75
2021/07/14 05:42:25;;;;;;;28.15;13.60;;;;;;;15.43;84.53;101414.66;4996029;28;20126;-74
2021/07/14 05:44:50;;;;;;;25.30;12.63;;;;;;;15.43;84.41;101417.34;4995906;28;20121;-73
2021/07/14 05:47:15;;;;;;;23.20;12.90;;;;;;;15.39;84.40;101430.22;4994315;28;20041;-73
2021/07/14 05:49:43;;;;;;;28.90;12.82;;;;;;;15.34;84.75;101411.91;4995148;28;20114;-75
2021/07/14 05:52:09;;;;;;;23.80;12.10;;;;;;;15.33;84.87;101418.28;4995680;28;20073;-77
2021/07/14 05:54:35;;;;;;;23.92;12.13;;;;;;;15.35;84.91;101428.84;4995695;28;20038;-74
2021/07/14 05:57:00;;;;;;;21.25;11.40;;;;;;;15.37;84.75;101426.84;4996206;28;20430;-76
2021/07/14 05:59:25;;;;;;;21.92;11.35;;;;;;;15.38;84.73;101435.75;4995734;28;20062;-73
2021/07/14 06:01:51;;;;;;;24.83;12.27;;;;;;;15.36;85.24;101443.09;4995157;28;20122;-75
2021/07/14 06:04:16;;;;;;;22.15;11.65;;;;;;;15.30;85.14;101452.56;4995147;28;20462;-74
2021/07/14 06:06:43;;;;;;;22.17;12.15;;;;;;;15.23;85.42;101459.59;4995857;28;20351;-74
2021/07/14 06:09:08;;;;;;;26.42;11.98;;;;;;;15.18;85.96;101462.69;4995334;28;20034;-75
2021/07/14 06:11:34;;;;;;;22.77;11.98;;;;;;;15.15;86.09;101463.00;4994892;28;20437;-74
2021/07/14 06:13:59;;;;;;;18.63;10.57;;;;;;;15.15;85.69;101463.88;4995105;28;20114;-74
2021/07/14 06:16:25;;;;;;;23.38;12.05;;;;;;;15.20;85.77;101457.19;4995420;28;20036;-75
2021/07/14 06:18:50;;;;;;;22.08;11.65;;;;;;;15.23;85.58;101454.22;4995086;28;20076;-76
2021/07/14 06:21:15;;;;;;;21.45;11.98;;;;;;;15.25;84.93;101460.25;4994459;28;20467;-76
2021/07/14 06:23:41;;;;;;;21.27;11.32;;;;;;;15.25;85.01;101460.25;4994785;28;20113;-76
2021/07/14 06:26:06;;;;;;;20.00;10.88;;;;;;;15.25;85.00;101450.38;4994215;28;20458;-75
2021/07/14 06:28:32;;;;;;;20.92;11.20;;;;;;;15.29;85.44;101456.28;4993325;28;20102;-73
2021/07/14 06:30:57;;;;;;;21.33;11.00;;;;;;;15.33;84.97;101460.31;4994298;28;20406;-72
2021/07/14 06:33:22;;;;;;;17.50;10.50;;;;;;;15.37;84.97;101456.31;4994467;28;20026;-75
2021/07/14 06:35:51;;;;;;;22.00;10.23;;;;;;;15.40;84.69;101447.13;4994766;28;20035;-76
2021/07/14 06:38:17;;;;;;;20.15;10.43;;;;;;;15.43;84.29;101461.06;4993545;28;20027;-75
2021/07/14 06:40:43;;;;;;;17.52;10.43;;;;;;;15.49;83.60;101459.59;4994049;28;20042;-77
2021/07/14 06:43:14;;;;;;;19.05;10.98;;;;;;;15.48;83.51;101464.13;4993582;28;20034;-77
2021/07/14 06:45:40;;;;;;;;;;;;;;;15.44;83.55;101465.44;4995072;28;20050;-78
2021/07/14 06:48:05;;;;;;;24.13;9.88;;;;;;;15.44;83.82;101465.44;4994174;28;20113;-75
2021/07/14 06:50:31;;;;;;;17.67;10.07;;;;;;;15.46;83.35;101465.28;4993829;28;20026;-76
2021/07/14 06:52:56;;;;;;;21.20;11.45;;;;;;;15.49;83.61;101462.28;4994292;28;20427;-76
2021/07/14 06:55:22;;;;;;;21.60;10.95;;;;;;;15.52;83.60;101470.03;4994175;28;20046;-76
2021/07/14 06:57:47;;;;;;;21.42;11.60;;;;;;;15.49;83.84;101468.47;4994402;28;20052;-78
2021/07/14 07:00:14;;;;;;;19.85;11.90;;;;;;;15.47;83.45;101464.28;4993666;28;20102;-78
2021/07/14 07:02:39;;;;;;;19.52;11.48;;;;;;;15.51;83.54;101468.34;4993405;28;20030;-82
2021/07/14 07:05:06;;;;;;;20.83;12.35;;;;;;;15.52;83.78;101473.56;4994038;28;20030;-75
2021/07/14 07:07:32;;;;;;;22.67;12.10;;;;;;;15.64;83.25;101476.81;4994008;28;20066;-75
2021/07/14 07:09:57;;;;;;;21.33;11.75;;;;;;;15.73;82.76;101472.34;4993624;28;20122;-75
2021/07/14 07:12:22;;;;;;;18.27;11.20;;;;;;;15.75;81.92;101473.03;5007913;28;20509;-76
2021/07/14 07:14:48;;;;;;;18.60;11.05;;;;;;;15.85;81.87;101468.44;4993379;28;20034;-76
2021/07/14 07:17:13;;;;;;;19.90;11.63;;;;;;;15.93;81.50;101477.53;4994540;28;20046;-78
2021/07/14 07:19:39;;;;;;;21.23;11.20;;;;;;;16.00;81.37;101483.94;4993657;28;20042;-75
2021/07/14 07:22:04;;;;;;;19.10;10.50;;;;;;;16.18;81.01;101479.34;4992836;28;20034;-80
2021/07/14 07:24:31;;;;;;;17.08;9.70;;;;;;;16.24;80.53;101485.06;4993570;28;20038;-76
2021/07/14 07:26:57;;;;;;;17.88;9.50;;;;;;;16.26;80.27;101472.31;4993110;28;20058;-78
2021/07/14 07:29:23;;;;;;;18.00;9.98;;;;;;;16.31;80.13;101473.53;4993550;28;20069;-84
2021/07/14 07:31:48;;;;;;;16.02;9.13;;;;;;;16.42;79.74;101466.19;4993459;28;20031;-76
2021/07/14 07:34:15;;;;;;;16.70;8.45;;;;;;;16.49;79.33;101467.22;4993023;28;20027;-75
2021/07/14 07:36:41;;;;;;;15.50;9.35;;;;;;;16.58;79.09;101458.19;4993236;28;20070;-79
2021/07/14 07:39:07;;;;;;;16.25;8.63;;;;;;;16.60;78.75;101458.00;4993676;28;20490;-78
2021/07/14 07:41:33;;;;;;;19.45;8.68;;;;;;;16.48;79.43;101458.34;4993426;28;20026;-74
2021/07/14 07:43:58;;;;;;;18.50;9.95;;;;;;;16.34;79.65;101457.09;4992600;28;20034;-74
2021/07/14 07:46:24;;;;;;;14.60;9.68;;;;;;;16.29;79.88;101454.06;4992681;28;20045;-76
2021/07/14 07:48:49;;;;;;;16.83;10.25;;;;;;;16.25;80.31;101439.28;4992721;28;20096;-76
2021/07/14 07:51:15;;;;;;;17.60;10.43;;;;;;;16.19;80.74;101448.81;4993255;28;20129;-75
2021/07/14 07:53:40;;;;;;;20.10;10.70;;;;;;;16.13;80.63;101452.13;4992892;28;20061;-76
2021/07/14 07:56:06;;;;;;;20.77;11.38;;;;;;;16.10;80.39;101449.78;4992355;28;20045;-76
2021/07/14 07:58:32;;;;;;;20.35;10.38;;;;;;;16.05;80.41;101449.44;4992941;28;20096;-76
2021/07/14 08:00:58;;;;;;;15.10;10.20;;;;;;;16.07;80.93;101446.59;4993504;28;20034;-74
2021/07/14 08:03:23;;;;;;;19.60;9.95;;;;;;;16.06;80.68;101448.41;4991541;28;20030;-75
2021/07/14 08:05:49;;;;;;;21.02;9.70;;;;;;;16.17;80.17;101442.75;4993061;28;20109;-74
2021/07/14 08:08:14;;;;;;;17.90;9.85;;;;;;;16.24;80.52;101442.13;4992819;28;20039;-80
2021/07/14 08:10:40;;;;;;;16.42;9.50;;;;;;;16.33;80.04;101436.63;4993291;28;20505;-77
2021/07/14 08:13:06;;;;;;;22.38;10.07;;;;;;;16.37;80.02;101440.66;4993181;28;20069;-73
2021/07/14 08:15:32;;;;;;;16.55;10.02;;;;;;;16.47;79.63;101450.44;4991951;28;20415;-75
2021/07/14 08:17:58;;;;;;;16.48;9.25;;;;;;;16.46;79.83;101451.44;4992699;28;20487;-76
2021/07/14 08:20:23;;;;;;;18.58;10.10;;;;;;;16.46;79.84;101452.25;4992909;28;20031;-76
2021/07/14 08:22:50;;;;;;;21.85;10.20;;;;;;;16.50;79.95;101459.00;4991227;28;20034;-74
2021/07/14 08:25:17;;;;;;;13.68;8.90;;;;;;;16.60;79.70;101458.00;4995207;28;20034;-74
2021/07/14 08:27:43;;;;;;;15.07;8.38;;;;;;;16.72;79.28;101460.25;4997137;28;20054;-73
2021/07/14 08:30:10;;;;;;;18.50;8.65;;;;;;;16.74;78.88;101465.44;4996297;28;20022;-79
2021/07/14 08:32:36;;;;;;;12.35;7.32;;;;;;;16.69;78.90;101467.78;4996064;28;20112;-75
2021/07/14 08:35:03;;;;;;;11.90;6.28;;;;;;;16.68;79.21;101471.47;4995012;28;20069;-73
2021/07/14 08:37:28;;;;;;;13.13;6.93;;;;;;;16.67;78.97;101470.63;4994724;28;20382;-72
2021/07/14 08:39:56;;;;;;;11.40;7.15;;;;;;;16.63;79.09;101468.44;4995827;28;20459;-75
2021/07/14 08:42:23;;;;;;;13.23;7.22;;;;;;;16.66;79.40;101462.72;4996570;28;20030;-79
2021/07/14 08:44:49;;;;;;;20.65;7.78;;;;;;;16.59;79.33;101461.72;4996004;28;20035;-75
2021/07/14 08:47:16;;;;;;;12.02;7.07;;;;;;;16.64;79.05;101468.25;4996417;28;20037;-77
2021/07/14 08:49:44;;;;;;;12.20;7.18;;;;;;;16.71;78.59;101473.84;4995345;28;20026;-77
2021/07/14 08:52:09;;;;;;;14.10;6.85;;;;;;;16.72;78.99;101467.47;4996088;28;20093;-80
2021/07/14 08:54:42;;;;;;;10.55;6.78;;;;;;;16.65;79.55;101463.75;4995979;28;20030;-91
2021/07/14 08:57:09;;;;;;;11.05;7.22;;;;;;;16.63;80.03;101463.06;4995467;28;20030;-85
2021/07/14 08:59:35;;;;;;;17.92;6.95;;;;;;;16.67;79.81;101467.09;4996052;28;20058;-77
2021/07/14 09:02:01;;;;;;;14.63;6.78;;;;;;;16.65;79.45;101458.38;4995329;28;20046;-77
2021/07/14 09:04:26;;;;;;;11.30;6.25;;;;;;;16.53;79.89;101463.22;4995313;28;20538;-75
2021/07/14 09:06:53;;;;;;;13.50;6.35;;;;;;;16.55;79.69;101458.50;4995275;28;20521;-80
2021/07/14 09:09:18;;;;;;;11.30;6.13;;;;;;;16.49;80.22;101465.38;4995839;28;20034;-75
2021/07/14 09:11:53;;;;;;;11.93;6.43;;;;;;;16.43;80.17;101470.56;4995436;28;20038;-77
2021/07/14 09:14:39;;;;;;;10.98;6.07;;;;;;;16.50;80.06;101464.38;4995383;28;20035;-76
2021/07/14 09:17:17;;;;;;;9.15;6.22;;;;;;;16.60;79.93;101458.88;4994931;28;20041;-82
2021/07/14 09:19:43;;;;;;;14.30;6.25;;;;;;;16.68;79.35;101460.75;4995442;28;20426;-75
2021/07/14 09:22:19;;;;;;;11.82;6.30;;;;;;;16.69;79.15;101465.94;4995132;28;20072;-83
2021/07/14 09:24:44;;;;;;;8.85;6.35;;;;;;;16.69;79.48;101460.56;4995224;28;20094;-78
2021/07/14 09:27:19;;;;;;;11.23;5.80;;;;;;;16.79;79.58;101467.63;4995495;28;20062;-81
2021/07/14 09:30:13;;;;;;;10.27;6.13;;;;;;;16.84;78.75;101458.09;4994507;28;20422;-84
2021/07/14 09:32:49;;;;;;;10.40;6.13;;;;;;;16.89;78.61;101466.50;4995700;28;20029;-79
2021/07/14 09:35:32;;;;;;;9.93;6.47;;;;;;;16.92;78.30;101458.13;4995163;28;20112;-77
2021/07/14 09:38:04;;;;;;;8.02;5.95;;;;;;;16.85;78.41;101466.97;4995638;28;20030;-81
2021/07/14 09:40:29;;;;;;;;;;;;;;;16.86;78.39;101465.97;4995615;28;20037;-79
2021/07/14 09:43:14;;;;;;;12.13;6.60;;;;;;;16.75;78.62;101464.47;4994999;28;20004;-75
2021/07/14 09:46:09;;;;;;;10.95;7.00;;;;;;;16.62;79.25;101462.22;4994778;28;20022;-77
2021/07/14 09:48:39;;;;;;;10.13;7.32;;;;;;;16.53;79.25;101464.03;4994191;28;20497;-79
2021/07/14 09:51:14;;;;;;;12.38;7.63;;;;;;;16.68;79.14;101460.75;4994694;28;20467;-77
2021/07/14 09:53:43;;;;;;;13.30;7.80;;;;;;;16.90;78.15;101459.31;4994764;28;20080;-80
2021/07/14 09:56:26;;;;;;;12.85;7.13;;;;;;;16.90;77.84;101459.31;4994979;28;20128;-78
2021/07/14 09:59:11;;;;;;;16.27;7.43;;;;;;;16.87;77.46;101463.16;4993158;28;20475;-77
2021/07/14 10:01:50;;;;;;;14.75;8.82;;;;;;;16.78;78.65;101456.06;4994662;28;20037;-74
2021/07/14 10:04:27;;;;;;;13.35;8.55;;;;;;;16.81;78.48;101455.72;4995155;28;20360;-76
2021/07/14 10:07:18;;;;;;;18.00;9.77;;;;;;;16.91;77.90;101450.22;4994972;28;20407;-77
2021/07/14 10:09:45;;;;;;;12.82;8.52;;;;;;;17.10;77.35;101455.28;4994582;28;20030;-76
2021/07/14 10:12:32;;;;;;;17.10;9.50;;;;;;;17.10;77.65;101446.38;4993393;28;20026;-77
2021/07/14 10:15:15;;;;;;;16.88;9.48;;;;;;;17.40;76.99;101452.91;4994690;28;20034;-77
2021/07/14 10:17:45;;;;;;;16.00;8.10;;;;;;;17.96;74.62;101455.72;4994714;28;20037;-80
2021/07/14 10:20:34;;;;;;;15.93;7.78;;;;;;;19.07;71.29;101452.97;4996963;28;20048;-75
2021/07/14 10:23:06;;;;;;;12.05;6.60;;;;;;;19.89;67.87;101457.63;4997719;28;20038;-78
2021/07/14 10:25:33;;;;;;;11.02;6.45;;;;;;;20.13;67.80;101463.78;4995544;28;20030;-75
2021/07/14 10:28:00;;;;;;;8.13;6.03;;;;;;;20.43;65.86;101461.03;4994216;28;20058;-77
2021/07/14 10:30:26;;;;;;;6.78;5.20;;;;;;;20.36;66.23;101460.97;4993961;28;20027;-79
2021/07/14 10:32:54;;;;;;;13.40;6.85;;;;;;;20.05;66.83;101467.44;4993487;28;20188;-79
2021/07/14 10:35:22;;;;;;;15.63;6.82;;;;;;;19.54;68.14;101481.59;4994637;28;20036;-76
2021/07/14 10:38:02;;;;;;;10.93;6.55;;;;;;;19.18;69.60;101487.63;4994270;28;20027;-76
2021/07/14 10:40:27;;;;;;;9.52;6.45;;;;;;;18.85;71.12;101487.84;4993658;28;20041;-76
2021/07/14 10:42:54;;;;;;;12.85;6.70;;;;;;;18.88;71.54;101496.59;4993603;28;20049;-76
2021/07/14 10:45:21;;;;;;;14.18;6.68;;;;;;;18.68;72.06;101486.22;4993674;28;20057;-76
2021/07/14 10:47:49;;;;;;;13.90;6.15;;;;;;;18.41;73.36;101488.38;4992695;28;20035;-81
2021/07/14 10:50:17;;;;;;;12.85;6.70;;;;;;;18.13;73.73;101494.19;4993538;28;20053;-80
2021/07/14 10:52:43;;;;;;;17.60;7.03;;;;;;;18.08;75.04;101493.06;4993496;28;20037;-75
2021/07/14 10:55:15;;;;;;;12.07;7.18;;;;;;;18.22;74.32;101496.88;4992904;28;20039;-74
2021/07/14 10:57:41;;;;;;;12.63;7.55;;;;;;;18.11;74.58;101484.63;4993519;28;20110;-77
2021/07/14 11:00:09;;;;;;;10.27;7.10;;;;;;;17.91;75.45;101492.25;4991452;28;20046;-82
2021/07/14 11:02:47;;;;;;;17.23;7.03;;;;;;;17.77;76.10;101494.59;4993037;28;20058;-74
2021/07/14 11:05:14;;;;;;;18.75;8.32;;;;;;;17.67;76.24;101495.78;4993984;28;20038;-75
2021/07/14 11:07:45;;;;;;;13.57;8.25;;;;;;;17.66;75.87;101484.19;4993433;28;20411;-75
2021/07/14 11:10:28;;;;;;;16.50;8.50;;;;;;;17.83;76.01;101493.06;4993229;28;20034;-77
2021/07/14 11:12:55;;;;;;;18.70;8.27;;;;;;;18.02;75.67;101488.34;4993459;28;20080;-75
2021/07/14 11:15:33;;;;;;;12.50;7.70;;;;;;;18.36;73.64;101482.66;4992765;28;20042;-74
2021/07/14 11:18:00;;;;;;;15.07;8.52;;;;;;;18.47;74.06;101482.28;4992993;28;20030;-74
2021/07/14 11:20:45;;;;;;;17.05;7.60;;;;;;;18.76;73.07;101474.56;4992755;28;20046;-74
2021/07/14 11:23:21;;;;;;;15.55;7.82;;;;;;;18.75;73.31;101479.13;4992880;28;20061;-74
2021/07/14 11:25:49;;;;;;;14.73;7.10;;;;;;;18.95;72.04;101473.28;4991727;28;20046;-72
2021/07/14 11:28:15;;;;;;;14.13;7.75;;;;;;;18.97;71.06;101474.81;4992720;28;20070;-74
2021/07/14 11:30:47;;;;;;;10.15;7.10;;;;;;;19.29;71.01;101477.44;4993053;28;20446;-74